sensor_id;sensor_type;location;lat;lon;timestamp;pressure;altitude;pressure_sealevel;temperature;humidity
38786;BME280;24535;45.508;12.252;2023-09-30T00:02:15;102041.00;;;23.01;52.26
38786;BME280;24535;45.508;12.252;2023-09-30T00:04:40;102041.13;;;23.00;52.44
38786;BME280;24535;45.508;12.252;2023-09-30T00:07:06;102034.06;;;22.99;52.67
38786;BME280;24535;45.508;12.252;2023-09-30T00:09:31;102021.63;;;22.98;52.69
38786;BME280;24535;45.508;12.252;2023-09-30T00:11:56;102021.63;;;22.98;52.67
38786;BME280;24535;45.508;12.252;2023-09-30T00:14:22;102025.31;;;22.97;52.61
38786;BME280;24535;45.508;12.252;2023-09-30T00:16:47;102026.31;;;22.95;52.42
38786;BME280;24535;45.508;12.252;2023-09-30T00:19:12;102023.78;;;22.94;52.35
38786;BME280;24535;45.508;12.252;2023-09-30T00:21:38;102029.28;;;22.92;52.76
38786;BME280;24535;45.508;12.252;2023-09-30T00:24:04;102034.66;;;22.92;52.92
38786;BME280;24535;45.508;12.252;2023-09-30T00:26:29;102022.47;;;22.98;52.91
38786;BME280;24535;45.508;12.252;2023-09-30T00:28:54;102034.16;;;23.07;52.48
38786;BME280;24535;45.508;12.252;2023-09-30T00:31:20;102035.00;;;23.07;52.71
38786;BME280;24535;45.508;12.252;2023-09-30T00:33:45;102032.78;;;23.03;52.30
38786;BME280;24535;45.508;12.252;2023-09-30T00:36:10;102024.47;;;22.96;52.42
38786;BME280;24535;45.508;12.252;2023-09-30T00:38:36;102023.06;;;22.92;52.79
38786;BME280;24535;45.508;12.252;2023-09-30T00:41:02;102027.03;;;22.88;52.83
38786;BME280;24535;45.508;12.252;2023-09-30T00:43:27;102029.03;;;22.86;53.12
38786;BME280;24535;45.508;12.252;2023-09-30T00:45:56;102024.81;;;22.83;52.79
38786;BME280;24535;45.508;12.252;2023-09-30T00:48:26;102027.66;;;22.82;53.18
38786;BME280;24535;45.508;12.252;2023-09-30T00:50:52;102032.19;;;22.81;52.90
38786;BME280;24535;45.508;12.252;2023-09-30T00:53:17;102040.94;;;22.83;53.22
38786;BME280;24535;45.508;12.252;2023-09-30T00:55:42;102037.22;;;22.84;52.96
38786;BME280;24535;45.508;12.252;2023-09-30T00:58:08;102043.78;;;22.82;53.30
38786;BME280;24535;45.508;12.252;2023-09-30T01:00:34;102037.97;;;22.77;52.86
38786;BME280;24535;45.508;12.252;2023-09-30T01:03:00;102038.31;;;22.74;53.12
38786;BME280;24535;45.508;12.252;2023-09-30T01:05:29;102038.44;;;22.72;53.82
38786;BME280;24535;45.508;12.252;2023-09-30T01:07:54;102035.75;;;22.72;53.74
38786;BME280;24535;45.508;12.252;2023-09-30T01:10:20;102037.47;;;22.73;53.37
38786;BME280;24535;45.508;12.252;2023-09-30T01:12:45;102034.44;;;22.76;53.09
38786;BME280;24535;45.508;12.252;2023-09-30T01:15:12;102035.28;;;22.77;53.43
38786;BME280;24535;45.508;12.252;2023-09-30T01:17:37;102032.78;;;22.75;53.51
38786;BME280;24535;45.508;12.252;2023-09-30T01:20:02;102025.72;;;22.74;53.53
38786;BME280;24535;45.508;12.252;2023-09-30T01:22:31;102025.56;;;22.76;53.36
38786;BME280;24535;45.508;12.252;2023-09-30T01:24:56;102029.06;;;22.76;53.10
38786;BME280;24535;45.508;12.252;2023-09-30T01:27:22;102029.91;;;22.77;53.28
38786;BME280;24535;45.508;12.252;2023-09-30T01:29:47;102027.09;;;22.78;52.98
38786;BME280;24535;45.508;12.252;2023-09-30T01:32:13;102014.50;;;22.79;53.32
38786;BME280;24535;45.508;12.252;2023-09-30T01:34:39;102003.75;;;22.79;53.38
38786;BME280;24535;45.508;12.252;2023-09-30T01:37:04;102002.91;;;22.78;53.54
38786;BME280;24535;45.508;12.252;2023-09-30T01:39:29;101998.38;;;22.79;53.58
38786;BME280;24535;45.508;12.252;2023-09-30T01:41:55;101998.38;;;22.79;53.34
38786;BME280;24535;45.508;12.252;2023-09-30T01:44:20;102000.91;;;22.80;53.04
38786;BME280;24535;45.508;12.252;2023-09-30T01:46:45;102003.59;;;22.80;53.12
38786;BME280;24535;45.508;12.252;2023-09-30T01:49:11;102006.00;;;22.83;53.39
38786;BME280;24535;45.508;12.252;2023-09-30T01:51:36;102007.66;;;22.84;53.16
38786;BME280;24535;45.508;12.252;2023-09-30T01:54:01;101999.31;;;22.87;53.44
38786;BME280;24535;45.508;12.252;2023-09-30T01:56:27;101997.19;;;22.91;53.54
38786;BME280;24535;45.508;12.252;2023-09-30T01:58:52;101988.53;;;22.97;53.22
38786;BME280;24535;45.508;12.252;2023-09-30T02:01:17;101988.22;;;23.00;53.17
38786;BME280;24535;45.508;12.252;2023-09-30T02:03:43;101984.69;;;23.00;53.17
38786;BME280;24535;45.508;12.252;2023-09-30T02:06:08;101985.69;;;22.99;52.99
38786;BME280;24535;45.508;12.252;2023-09-30T02:08:33;101984.13;;;22.96;52.56
38786;BME280;24535;45.508;12.252;2023-09-30T02:11:01;101981.78;;;22.93;52.64
38786;BME280;24535;45.508;12.252;2023-09-30T02:13:26;101975.69;;;22.91;52.49
38786;BME280;24535;45.508;12.252;2023-09-30T02:15:52;101978.66;;;22.88;52.92
38786;BME280;24535;45.508;12.252;2023-09-30T02:18:20;101987.88;;;22.85;52.66
38786;BME280;24535;45.508;12.252;2023-09-30T02:20:45;101994.22;;;22.84;53.07
38786;BME280;24535;45.508;12.252;2023-09-30T02:23:11;102000.31;;;22.86;53.29
38786;BME280;24535;45.508;12.252;2023-09-30T02:25:36;101995.94;;;22.85;52.91
38786;BME280;24535;45.508;12.252;2023-09-30T02:28:02;101999.78;;;22.83;53.03
38786;BME280;24535;45.508;12.252;2023-09-30T02:30:27;101995.69;;;22.79;53.41
38786;BME280;24535;45.508;12.252;2023-09-30T02:32:52;101994.31;;;22.75;53.34
38786;BME280;24535;45.508;12.252;2023-09-30T02:35:18;101997.28;;;22.71;53.48
38786;BME280;24535;45.508;12.252;2023-09-30T02:37:45;102002.28;;;22.66;53.18
38786;BME280;24535;45.508;12.252;2023-09-30T02:40:11;102003.59;;;22.62;53.16
38786;BME280;24535;45.508;12.252;2023-09-30T02:42:39;102001.34;;;22.58;52.90
38786;BME280;24535;45.508;12.252;2023-09-30T02:45:05;102007.00;;;22.55;53.01
38786;BME280;24535;45.508;12.252;2023-09-30T02:47:30;102004.78;;;22.50;53.21
38786;BME280;24535;45.508;12.252;2023-09-30T02:49:56;102003.22;;;22.48;53.11
38786;BME280;24535;45.508;12.252;2023-09-30T02:52:22;102013.41;;;22.44;53.23
38786;BME280;24535;45.508;12.252;2023-09-30T02:54:47;102009.88;;;22.43;53.66
38786;BME280;24535;45.508;12.252;2023-09-30T02:57:14;102007.38;;;22.42;53.23
38786;BME280;24535;45.508;12.252;2023-09-30T02:59:39;102011.06;;;22.41;53.68
38786;BME280;24535;45.508;12.252;2023-09-30T03:02:05;102008.38;;;22.41;53.78
38786;BME280;24535;45.508;12.252;2023-09-30T03:04:30;102010.22;;;22.40;53.44
38786;BME280;24535;45.508;12.252;2023-09-30T03:06:55;102009.50;;;22.38;53.06
38786;BME280;24535;45.508;12.252;2023-09-30T03:09:21;102011.63;;;22.35;52.98
38786;BME280;24535;45.508;12.252;2023-09-30T03:11:47;102001.06;;;22.33;52.76
38786;BME280;24535;45.508;12.252;2023-09-30T03:14:12;102003.88;;;22.32;53.31
38786;BME280;24535;45.508;12.252;2023-09-30T03:16:39;101994.13;;;22.31;53.31
38786;BME280;24535;45.508;12.252;2023-09-30T03:19:05;101993.69;;;22.35;52.78
38786;BME280;24535;45.508;12.252;2023-09-30T03:21:30;101998.75;;;22.38;53.12
38786;BME280;24535;45.508;12.252;2023-09-30T03:23:56;101998.75;;;22.38;53.17
38786;BME280;24535;45.508;12.252;2023-09-30T03:28:47;101985.50;;;22.37;52.65
38786;BME280;24535;45.508;12.252;2023-09-30T03:31:12;101988.31;;;22.35;52.69
38786;BME280;24535;45.508;12.252;2023-09-30T03:33:37;101984.94;;;22.33;52.80
38786;BME280;24535;45.508;12.252;2023-09-30T03:36:02;101980.56;;;22.32;53.46
38786;BME280;24535;45.508;12.252;2023-09-30T03:38:28;101980.13;;;22.37;54.02
38786;BME280;24535;45.508;12.252;2023-09-30T03:40:54;101975.97;;;22.42;53.17
38786;BME280;24535;45.508;12.252;2023-09-30T03:43:20;101982.47;;;22.40;53.01
38786;BME280;24535;45.508;12.252;2023-09-30T03:45:46;101976.59;;;22.36;53.42
38786;BME280;24535;45.508;12.252;2023-09-30T03:48:11;101970.69;;;22.33;53.30
38786;BME280;24535;45.508;12.252;2023-09-30T03:50:37;101969.13;;;22.30;52.89
38786;BME280;24535;45.508;12.252;2023-09-30T03:53:03;101973.50;;;22.31;53.44
38786;BME280;24535;45.508;12.252;2023-09-30T03:55:30;101976.19;;;22.31;53.44
38786;BME280;24535;45.508;12.252;2023-09-30T03:57:57;101977.88;;;22.32;53.38
38786;BME280;24535;45.508;12.252;2023-09-30T04:00:22;101986.06;;;22.31;53.35
38786;BME280;24535;45.508;12.252;2023-09-30T04:02:49;101981.00;;;22.28;52.98
38786;BME280;24535;45.508;12.252;2023-09-30T04:05:14;101988.53;;;22.24;53.67
38786;BME280;24535;45.508;12.252;2023-09-30T04:07:41;101981.59;;;22.21;53.63
38786;BME280;24535;45.508;12.252;2023-09-30T04:10:08;101987.97;;;22.20;53.64
38786;BME280;24535;45.508;12.252;2023-09-30T04:12:33;101980.75;;;22.21;53.67
38786;BME280;24535;45.508;12.252;2023-09-30T04:14:59;101977.38;;;22.19;53.63
38786;BME280;24535;45.508;12.252;2023-09-30T04:17:24;101984.41;;;22.20;53.46
38786;BME280;24535;45.508;12.252;2023-09-30T04:19:51;101984.56;;;22.18;53.82
38786;BME280;24535;45.508;12.252;2023-09-30T04:22:17;101989.09;;;22.18;53.56
38786;BME280;24535;45.508;12.252;2023-09-30T04:24:44;101994.47;;;22.18;54.08
38786;BME280;24535;45.508;12.252;2023-09-30T04:27:09;101991.78;;;22.18;53.98
38786;BME280;24535;45.508;12.252;2023-09-30T04:29:34;101998.84;;;22.19;54.00
38786;BME280;24535;45.508;12.252;2023-09-30T04:32:00;102000.53;;;22.20;54.01
38786;BME280;24535;45.508;12.252;2023-09-30T04:34:25;101996.03;;;22.20;53.77
38786;BME280;24535;45.508;12.252;2023-09-30T04:36:52;101998.84;;;22.19;54.00
38786;BME280;24535;45.508;12.252;2023-09-30T04:39:18;101999.84;;;22.18;53.73
38786;BME280;24535;45.508;12.252;2023-09-30T04:41:43;102005.22;;;22.18;54.20
38786;BME280;24535;45.508;12.252;2023-09-30T04:44:09;101993.63;;;22.17;53.81
38786;BME280;24535;45.508;12.252;2023-09-30T04:46:37;101996.31;;;22.17;54.20
38786;BME280;24535;45.508;12.252;2023-09-30T04:49:08;101998.00;;;22.18;54.33
38786;BME280;24535;45.508;12.252;2023-09-30T04:51:34;102000.69;;;22.18;53.91
38786;BME280;24535;45.508;12.252;2023-09-30T04:53:59;102007.72;;;22.19;54.48
38786;BME280;24535;45.508;12.252;2023-09-30T04:56:25;101997.84;;;22.20;54.36
38786;BME280;24535;45.508;12.252;2023-09-30T04:58:50;101998.72;;;22.20;54.52
38786;BME280;24535;45.508;12.252;2023-09-30T05:01:16;102003.91;;;22.22;54.22
38786;BME280;24535;45.508;12.252;2023-09-30T05:03:44;102000.22;;;22.23;54.20
38786;BME280;24535;45.508;12.252;2023-09-30T05:06:09;102004.47;;;22.26;54.27
38786;BME280;24535;45.508;12.252;2023-09-30T05:08:34;102015.06;;;22.27;54.41
38786;BME280;24535;45.508;12.252;2023-09-30T05:11:00;102017.28;;;22.32;54.27
38786;BME280;24535;45.508;12.252;2023-09-30T05:13:26;102022.63;;;22.41;54.06
38786;BME280;24535;45.508;12.252;2023-09-30T05:15:51;102017.94;;;22.43;54.51
38786;BME280;24535;45.508;12.252;2023-09-30T05:18:17;102019.66;;;22.44;54.08
38786;BME280;24535;45.508;12.252;2023-09-30T05:20:42;102016.09;;;22.44;54.07
38786;BME280;24535;45.508;12.252;2023-09-30T05:23:09;102017.09;;;22.43;54.45
38786;BME280;24535;45.508;12.252;2023-09-30T05:25:37;102023.31;;;22.43;54.18
38786;BME280;24535;45.508;12.252;2023-09-30T05:28:03;102031.25;;;22.45;54.09
38786;BME280;24535;45.508;12.252;2023-09-30T05:30:29;102035.78;;;22.44;54.07
38786;BME280;24535;45.508;12.252;2023-09-30T05:32:54;102034.06;;;22.43;53.85
38786;BME280;24535;45.508;12.252;2023-09-30T05:35:20;102032.22;;;22.44;54.12
38786;BME280;24535;45.508;12.252;2023-09-30T05:37:47;102026.84;;;22.44;54.10
38786;BME280;24535;45.508;12.252;2023-09-30T05:40:12;102027.00;;;22.42;54.15
38786;BME280;24535;45.508;12.252;2023-09-30T05:42:50;102018.94;;;22.42;54.48
38786;BME280;24535;45.508;12.252;2023-09-30T05:45:15;102012.75;;;22.42;54.02
38786;BME280;24535;45.508;12.252;2023-09-30T05:47:41;102020.97;;;22.40;54.30
38786;BME280;24535;45.508;12.252;2023-09-30T05:50:06;102021.78;;;22.41;54.77
38786;BME280;24535;45.508;12.252;2023-09-30T05:52:32;102020.09;;;22.40;54.41
38786;BME280;24535;45.508;12.252;2023-09-30T05:55:01;102019.94;;;22.41;54.53
38786;BME280;24535;45.508;12.252;2023-09-30T05:57:27;102019.09;;;22.41;54.59
38786;BME280;24535;45.508;12.252;2023-09-30T05:59:52;102012.03;;;22.40;55.00
38786;BME280;24535;45.508;12.252;2023-09-30T06:02:18;102016.25;;;22.42;54.61
38786;BME280;24535;45.508;12.252;2023-09-30T06:04:43;102017.94;;;22.43;54.78
38786;BME280;24535;45.508;12.252;2023-09-30T06:07:08;102023.31;;;22.43;54.90
38786;BME280;24535;45.508;12.252;2023-09-30T06:09:35;102025.03;;;22.44;55.37
38786;BME280;24535;45.508;12.252;2023-09-30T06:12:00;102032.94;;;22.46;55.34
38786;BME280;24535;45.508;12.252;2023-09-30T06:14:28;102037.16;;;22.49;55.23
38786;BME280;24535;45.508;12.252;2023-09-30T06:16:56;102044.22;;;22.50;54.95
38786;BME280;24535;45.508;12.252;2023-09-30T06:19:21;102058.34;;;22.52;55.25
38786;BME280;24535;45.508;12.252;2023-09-30T06:21:46;102060.19;;;22.51;55.16
38786;BME280;24535;45.508;12.252;2023-09-30T06:24:12;102068.13;;;22.53;55.01
38786;BME280;24535;45.508;12.252;2023-09-30T06:26:37;102061.56;;;22.55;55.24
38786;BME280;24535;45.508;12.252;2023-09-30T06:29:02;102064.81;;;22.59;55.37
38786;BME280;24535;45.508;12.252;2023-09-30T06:31:28;102074.28;;;22.63;54.97
38786;BME280;24535;45.508;12.252;2023-09-30T06:33:53;102084.56;;;22.67;55.34
38786;BME280;24535;45.508;12.252;2023-09-30T06:36:23;102076.91;;;22.73;55.27
38786;BME280;24535;45.508;12.252;2023-09-30T06:38:48;102067.41;;;22.78;55.25
38786;BME280;24535;45.508;12.252;2023-09-30T06:41:16;102069.66;;;22.83;55.58
38786;BME280;24535;45.508;12.252;2023-09-30T06:43:42;102074.56;;;22.87;55.07
38786;BME280;24535;45.508;12.252;2023-09-30T06:46:08;102074.13;;;22.92;54.68
38786;BME280;24535;45.508;12.252;2023-09-30T06:48:36;102066.34;;;22.99;54.65
38786;BME280;24535;45.508;12.252;2023-09-30T06:51:02;102064.03;;;23.04;54.27
38786;BME280;24535;45.508;12.252;2023-09-30T06:53:28;102067.25;;;23.07;54.05
38786;BME280;24535;45.508;12.252;2023-09-30T06:55:53;102069.34;;;23.13;54.59
38786;BME280;24535;45.508;12.252;2023-09-30T06:58:18;102063.50;;;23.18;54.00
38786;BME280;24535;45.508;12.252;2023-09-30T07:00:47;102062.22;;;23.22;53.85
38786;BME280;24535;45.508;12.252;2023-09-30T07:03:14;102066.28;;;23.26;54.22
38786;BME280;24535;45.508;12.252;2023-09-30T07:05:40;102060.44;;;23.31;54.28
38786;BME280;24535;45.508;12.252;2023-09-30T07:08:06;102061.66;;;23.36;53.63
38786;BME280;24535;45.508;12.252;2023-09-30T07:10:31;102054.97;;;23.40;53.36
38786;BME280;24535;45.508;12.252;2023-09-30T07:12:56;102056.34;;;23.44;53.55
38786;BME280;24535;45.508;12.252;2023-09-30T07:15:22;102061.25;;;23.49;53.58
38786;BME280;24535;45.508;12.252;2023-09-30T07:17:47;102062.66;;;23.53;53.38
38786;BME280;24535;45.508;12.252;2023-09-30T07:20:13;102064.72;;;23.59;53.87
38786;BME280;24535;45.508;12.252;2023-09-30T07:22:38;102065.00;;;23.66;53.85
38786;BME280;24535;45.508;12.252;2023-09-30T07:25:04;102064.34;;;23.72;53.62
38786;BME280;24535;45.508;12.252;2023-09-30T07:27:29;102065.56;;;23.78;53.42
38786;BME280;24535;45.508;12.252;2023-09-30T07:29:55;102077.56;;;23.83;53.25
38786;BME280;24535;45.508;12.252;2023-09-30T07:32:20;102073.56;;;23.87;52.49
38786;BME280;24535;45.508;12.252;2023-09-30T07:34:48;102076.63;;;23.92;52.53
38786;BME280;24535;45.508;12.252;2023-09-30T07:37:13;102073.31;;;23.99;52.23
38786;BME280;24535;45.508;12.252;2023-09-30T07:39:39;102078.34;;;24.02;52.17
38786;BME280;24535;45.508;12.252;2023-09-30T07:42:04;102091.22;;;24.08;52.71
38786;BME280;24535;45.508;12.252;2023-09-30T07:44:30;102083.31;;;24.14;52.36
38786;BME280;24535;45.508;12.252;2023-09-30T07:46:55;102091.78;;;24.20;52.76
38786;BME280;24535;45.508;12.252;2023-09-30T07:49:21;102095.69;;;24.25;52.37
38786;BME280;24535;45.508;12.252;2023-09-30T07:51:46;102105.84;;;24.31;51.93
38786;BME280;24535;45.508;12.252;2023-09-30T07:54:11;102107.88;;;24.37;51.64
38786;BME280;24535;45.508;12.252;2023-09-30T07:56:37;102104.59;;;24.44;51.63
38786;BME280;24535;45.508;12.252;2023-09-30T07:59:02;102104.63;;;24.52;51.56
38786;BME280;24535;45.508;12.252;2023-09-30T08:01:28;102102.97;;;24.59;51.06
38786;BME280;24535;45.508;12.252;2023-09-30T08:03:55;102111.13;;;24.75;51.18
38786;BME280;24535;45.508;12.252;2023-09-30T08:06:21;102112.59;;;24.96;50.76
38786;BME280;24535;45.508;12.252;2023-09-30T08:08:46;102113.16;;;25.15;49.06
38786;BME280;24535;45.508;12.252;2023-09-30T08:11:12;102121.44;;;25.30;48.80
38786;BME280;24535;45.508;12.252;2023-09-30T08:13:37;102112.22;;;25.41;47.97
38786;BME280;24535;45.508;12.252;2023-09-30T08:16:03;102128.22;;;25.51;48.11
38786;BME280;24535;45.508;12.252;2023-09-30T08:18:28;102125.88;;;25.56;47.16
38786;BME280;24535;45.508;12.252;2023-09-30T08:20:54;102124.38;;;25.61;47.71
38786;BME280;24535;45.508;12.252;2023-09-30T08:23:19;102122.19;;;25.65;47.59
38786;BME280;24535;45.508;12.252;2023-09-30T08:25:44;102128.09;;;25.69;47.57
38786;BME280;24535;45.508;12.252;2023-09-30T08:28:10;102126.91;;;25.71;47.58
38786;BME280;24535;45.508;12.252;2023-09-30T08:30:36;102128.25;;;25.75;47.90
38786;BME280;24535;45.508;12.252;2023-09-30T08:33:01;102132.34;;;25.79;47.68
38786;BME280;24535;45.508;12.252;2023-09-30T08:35:28;102133.34;;;25.86;47.53
38786;BME280;24535;45.508;12.252;2023-09-30T08:37:54;102139.78;;;25.94;47.54
38786;BME280;24535;45.508;12.252;2023-09-30T08:40:22;102142.63;;;26.00;46.94
38786;BME280;24535;45.508;12.252;2023-09-30T08:42:51;102139.91;;;26.08;47.12
38786;BME280;24535;45.508;12.252;2023-09-30T08:45:16;102141.09;;;26.14;46.70
38786;BME280;24535;45.508;12.252;2023-09-30T08:47:42;102132.50;;;26.19;46.54
38786;BME280;24535;45.508;12.252;2023-09-30T08:50:08;102140.06;;;26.23;46.71
38786;BME280;24535;45.508;12.252;2023-09-30T08:52:35;102136.00;;;26.27;46.44
38786;BME280;24535;45.508;12.252;2023-09-30T08:55:02;102120.28;;;26.39;46.82
38786;BME280;24535;45.508;12.252;2023-09-30T08:57:28;102121.78;;;26.58;46.87
38786;BME280;24535;45.508;12.252;2023-09-30T08:59:54;102117.78;;;26.85;46.78
38786;BME280;24535;45.508;12.252;2023-09-30T09:02:20;102124.09;;;27.08;46.49
38786;BME280;24535;45.508;12.252;2023-09-30T09:04:45;102120.22;;;27.34;46.16
38786;BME280;24535;45.508;12.252;2023-09-30T09:07:14;102119.91;;;27.60;45.85
38786;BME280;24535;45.508;12.252;2023-09-30T09:09:39;102126.81;;;27.85;45.47
38786;BME280;24535;45.508;12.252;2023-09-30T09:12:05;102117.63;;;28.09;45.18
38786;BME280;24535;45.508;12.252;2023-09-30T09:14:40;102118.41;;;28.33;44.70
38786;BME280;24535;45.508;12.252;2023-09-30T09:17:06;102112.72;;;28.57;44.45
38786;BME280;24535;45.508;12.252;2023-09-30T09:19:32;102106.72;;;28.77;43.75
38786;BME280;24535;45.508;12.252;2023-09-30T09:21:58;102116.91;;;28.90;42.78
38786;BME280;24535;45.508;12.252;2023-09-30T09:24:31;102105.41;;;29.02;43.19
38786;BME280;24535;45.508;12.252;2023-09-30T09:27:12;102109.50;;;29.13;43.21
38786;BME280;24535;45.508;12.252;2023-09-30T09:29:41;102102.53;;;29.25;42.74
38786;BME280;24535;45.508;12.252;2023-09-30T09:32:15;102109.28;;;29.36;42.84
38786;BME280;24535;45.508;12.252;2023-09-30T09:34:41;102109.47;;;29.49;42.30
38786;BME280;24535;45.508;12.252;2023-09-30T09:39:39;102091.28;;;29.71;41.76
38786;BME280;24535;45.508;12.252;2023-09-30T09:42:04;102099.09;;;29.81;42.05
38786;BME280;24535;45.508;12.252;2023-09-30T09:44:31;102091.63;;;29.90;42.01
38786;BME280;24535;45.508;12.252;2023-09-30T09:46:56;102095.25;;;29.97;41.37
38786;BME280;24535;45.508;12.252;2023-09-30T09:49:22;102086.94;;;30.05;41.15
38786;BME280;24535;45.508;12.252;2023-09-30T09:51:50;102089.50;;;30.13;41.17
38786;BME280;24535;45.508;12.252;2023-09-30T09:54:17;102096.06;;;30.19;40.60
38786;BME280;24535;45.508;12.252;2023-09-30T09:56:45;102101.94;;;30.22;40.39
38786;BME280;24535;45.508;12.252;2023-09-30T09:59:11;102100.50;;;30.26;40.36
38786;BME280;24535;45.508;12.252;2023-09-30T10:01:37;102096.53;;;30.29;40.36
38786;BME280;24535;45.508;12.252;2023-09-30T10:04:04;102105.72;;;30.28;40.13
38786;BME280;24535;45.508;12.252;2023-09-30T10:06:30;102105.28;;;30.24;39.91
38786;BME280;24535;45.508;12.252;2023-09-30T10:09:03;102105.44;;;30.16;40.20
38786;BME280;24535;45.508;12.252;2023-09-30T10:11:30;102109.13;;;30.09;40.43
38786;BME280;24535;45.508;12.252;2023-09-30T10:13:56;102122.03;;;30.00;40.78
38786;BME280;24535;45.508;12.252;2023-09-30T10:19:18;102114.50;;;29.74;40.85
38786;BME280;24535;45.508;12.252;2023-09-30T10:24:28;102120.25;;;29.43;40.52
38786;BME280;24535;45.508;12.252;2023-09-30T10:29:41;102123.31;;;29.18;41.43
38786;BME280;24535;45.508;12.252;2023-09-30T10:32:09;102110.25;;;29.07;41.51
38786;BME280;24535;45.508;12.252;2023-09-30T10:34:35;102116.00;;;28.97;41.60
38786;BME280;24535;45.508;12.252;2023-09-30T10:37:19;102107.09;;;28.89;41.81
38786;BME280;24535;45.508;12.252;2023-09-30T10:39:57;102109.72;;;28.82;41.89
38786;BME280;24535;45.508;12.252;2023-09-30T10:45:07;102109.34;;;28.70;41.74
38786;BME280;24535;45.508;12.252;2023-09-30T10:47:36;102112.63;;;28.66;41.98
38786;BME280;24535;45.508;12.252;2023-09-30T10:50:02;102106.75;;;28.62;42.16
38786;BME280;24535;45.508;12.252;2023-09-30T10:52:29;102108.34;;;28.56;42.20
38786;BME280;24535;45.508;12.252;2023-09-30T10:54:56;102107.22;;;28.51;42.21
38786;BME280;24535;45.508;12.252;2023-09-30T10:57:27;102100.47;;;28.47;42.58
38786;BME280;24535;45.508;12.252;2023-09-30T11:00:08;102093.94;;;28.41;42.53
38786;BME280;24535;45.508;12.252;2023-09-30T11:02:33;102089.94;;;28.37;42.45
38786;BME280;24535;45.508;12.252;2023-09-30T11:05:08;102081.28;;;28.33;42.43
38786;BME280;24535;45.508;12.252;2023-09-30T11:07:33;102092.50;;;28.30;42.82
38786;BME280;24535;45.508;12.252;2023-09-30T11:10:00;102093.91;;;28.26;42.77
38786;BME280;24535;45.508;12.252;2023-09-30T11:12:26;102093.63;;;28.21;42.82
38786;BME280;24535;45.508;12.252;2023-09-30T11:14:58;102091.28;;;28.18;42.54
38786;BME280;24535;45.508;12.252;2023-09-30T11:17:23;102083.34;;;28.17;42.70
38786;BME280;24535;45.508;12.252;2023-09-30T11:19:49;102071.84;;;28.15;42.82
38786;BME280;24535;45.508;12.252;2023-09-30T11:22:15;102071.84;;;28.15;42.85
38786;BME280;24535;45.508;12.252;2023-09-30T11:24:40;102065.56;;;28.14;42.83
38786;BME280;24535;45.508;12.252;2023-09-30T11:27:05;102060.16;;;28.14;42.82
38786;BME280;24535;45.508;12.252;2023-09-30T11:29:31;102056.81;;;28.12;42.74
38786;BME280;24535;45.508;12.252;2023-09-30T11:31:57;102044.25;;;28.11;42.78
38786;BME280;24535;45.508;12.252;2023-09-30T11:34:41;102044.47;;;28.09;42.98
38786;BME280;24535;45.508;12.252;2023-09-30T11:37:07;102040.91;;;28.09;42.87
38786;BME280;24535;45.508;12.252;2023-09-30T11:39:35;102048.38;;;28.07;43.04
38786;BME280;24535;45.508;12.252;2023-09-30T11:42:00;102053.78;;;28.07;42.95
38786;BME280;24535;45.508;12.252;2023-09-30T11:44:26;102052.94;;;28.06;43.07
38786;BME280;24535;45.508;12.252;2023-09-30T11:46:58;102046.69;;;28.06;43.17
38786;BME280;24535;45.508;12.252;2023-09-30T11:49:37;102050.44;;;28.05;43.24
38786;BME280;24535;45.508;12.252;2023-09-30T11:52:12;102042.47;;;28.03;43.24
38786;BME280;24535;45.508;12.252;2023-09-30T11:54:39;102045.19;;;28.03;43.03
38786;BME280;24535;45.508;12.252;2023-09-30T11:57:06;102047.91;;;28.03;43.02
38786;BME280;24535;45.508;12.252;2023-09-30T11:59:34;102031.00;;;28.01;43.24
38786;BME280;24535;45.508;12.252;2023-09-30T12:02:01;102027.44;;;28.01;42.94
38786;BME280;24535;45.508;12.252;2023-09-30T12:04:26;102019.50;;;27.99;43.17
38786;BME280;24535;45.508;12.252;2023-09-30T12:06:51;102020.88;;;27.95;43.03
38786;BME280;24535;45.508;12.252;2023-09-30T12:09:17;102017.75;;;27.92;43.02
38786;BME280;24535;45.508;12.252;2023-09-30T12:11:47;102022.47;;;27.90;43.27
38786;BME280;24535;45.508;12.252;2023-09-30T12:14:13;102014.72;;;27.87;43.59
38786;BME280;24535;45.508;12.252;2023-09-30T12:16:39;102026.41;;;27.87;43.61
38786;BME280;24535;45.508;12.252;2023-09-30T12:19:04;102024.72;;;27.86;43.60
38786;BME280;24535;45.508;12.252;2023-09-30T12:21:33;102023.03;;;27.85;43.34
38786;BME280;24535;45.508;12.252;2023-09-30T12:24:00;102024.09;;;27.84;43.87
38786;BME280;24535;45.508;12.252;2023-09-30T12:26:25;102023.41;;;27.82;43.78
38786;BME280;24535;45.508;12.252;2023-09-30T12:28:51;102030.50;;;27.83;43.87
38786;BME280;24535;45.508;12.252;2023-09-30T12:31:16;102022.38;;;27.83;43.77
38786;BME280;24535;45.508;12.252;2023-09-30T12:33:41;102024.09;;;27.84;43.98
38786;BME280;24535;45.508;12.252;2023-09-30T12:36:07;102021.38;;;27.84;43.94
38786;BME280;24535;45.508;12.252;2023-09-30T12:38:38;102018.81;;;27.82;44.09
38786;BME280;24535;45.508;12.252;2023-09-30T12:41:03;102013.41;;;27.82;44.01
38786;BME280;24535;45.508;12.252;2023-09-30T12:43:28;102021.53;;;27.82;43.93
38786;BME280;24535;45.508;12.252;2023-09-30T12:45:54;102026.13;;;27.82;43.97
38786;BME280;24535;45.508;12.252;2023-09-30T12:48:19;102026.13;;;27.82;44.20
38786;BME280;24535;45.508;12.252;2023-09-30T12:50:45;102022.56;;;27.81;44.21
38786;BME280;24535;45.508;12.252;2023-09-30T12:53:10;102028.00;;;27.81;44.19